createdAt,value
2019-05-30T00:00:26.981Z,94876.20
2019-05-30T00:02:56.839Z,94870.67
2019-05-30T00:05:25.917Z,94877.61
2019-05-30T00:07:54.622Z,94873.64
2019-05-30T00:10:23.256Z,94872.37
2019-05-30T00:12:51.746Z,94874.35
2019-05-30T00:15:20.424Z,94868.72
2019-05-30T00:17:49.060Z,94872.25
2019-05-30T00:20:17.694Z,94879.57
2019-05-30T00:22:46.236Z,94871.91
2019-05-30T00:25:14.860Z,94876.30
2019-05-30T00:27:43.572Z,94874.35
2019-05-30T00:30:23.790Z,94868.31
2019-05-30T00:32:42.391Z,94874.98
2019-05-30T00:35:11.220Z,94878.34
2019-05-30T00:37:39.891Z,94871.63
2019-05-30T00:40:08.623Z,94865.24
2019-05-30T00:42:37.347Z,94867.28
2019-05-30T00:45:18.619Z,94867.69
2019-05-30T00:47:37.212Z,94863.65
2019-05-30T00:50:06.782Z,94872.25
2019-05-30T00:52:35.487Z,94870.53
2019-05-30T00:55:05.421Z,94878.79
2019-05-30T00:57:33.920Z,94881.84
2019-05-30T01:00:03.056Z,94882.73
2019-05-30T01:02:31.776Z,94886.31
2019-05-30T01:05:01.015Z,94889.33
2019-05-30T01:07:29.588Z,94885.40
2019-05-30T01:09:59.107Z,94884.15
2019-05-30T01:12:27.828Z,94886.80
2019-05-30T01:14:56.910Z,94884.91
2019-05-30T01:17:25.471Z,94882.17
2019-05-30T01:19:54.104Z,94884.95
2019-05-30T01:22:22.771Z,94894.17
2019-05-30T01:24:51.367Z,94882.95
2019-05-30T01:27:19.914Z,94906.27
2019-05-30T01:29:48.514Z,94903.26
2019-05-30T01:32:29.119Z,94903.39
2019-05-30T01:34:59.714Z,94901.07
2019-05-30T01:37:28.504Z,94895.66
2019-05-30T01:39:57.769Z,94906.16
2019-05-30T01:42:26.436Z,94906.39
2019-05-30T01:44:55.361Z,94907.52
2019-05-30T01:47:23.996Z,94913.20
2019-05-30T01:49:52.666Z,94904.88
2019-05-30T01:52:21.394Z,94904.02
2019-05-30T01:54:49.950Z,94905.53
2019-05-30T01:57:18.592Z,94907.42
2019-05-30T01:59:47.153Z,94909.20
2019-05-30T02:02:15.903Z,94913.50
2019-05-30T02:04:44.458Z,94915.67
2019-05-30T02:07:13.089Z,94911.38
2019-05-30T02:09:41.679Z,94917.82
2019-05-30T02:12:10.270Z,94918.32
2019-05-30T02:14:38.908Z,94917.16
2019-05-30T02:17:07.864Z,94921.30
2019-05-30T02:19:36.522Z,94917.89
2019-05-30T02:22:05.824Z,94922.16
2019-05-30T02:24:34.504Z,94927.00
2019-05-30T02:27:04.179Z,94928.27
2019-05-30T02:29:32.742Z,94928.59
2019-05-30T02:32:02.956Z,94910.42
2019-05-30T02:34:31.611Z,94922.15
2019-05-30T02:37:01.158Z,94930.88
2019-05-30T02:39:30.652Z,94929.12
2019-05-30T02:42:00.815Z,94918.16
2019-05-30T02:44:29.743Z,94928.39
2019-05-30T02:46:58.328Z,94927.14
2019-05-30T02:49:27.235Z,94922.95
2019-05-30T02:51:56.029Z,94924.86
2019-05-30T02:54:24.763Z,94923.97
2019-05-30T02:56:53.310Z,94924.00
2019-05-30T02:59:21.979Z,94923.53
2019-05-30T03:02:00.957Z,94917.97
2019-05-30T03:04:20.964Z,94920.88
2019-05-30T03:06:49.639Z,94922.03
2019-05-30T03:09:18.388Z,94922.78
2019-05-30T03:11:47.295Z,94921.64
2019-05-30T03:14:19.486Z,94921.51
2019-05-30T03:16:46.278Z,94925.15
2019-05-30T03:19:14.886Z,94928.81
2019-05-30T03:21:43.570Z,94923.37
2019-05-30T03:24:14.245Z,94929.65
2019-05-30T03:26:42.637Z,94914.09
2019-05-30T03:29:12.502Z,94922.73
2019-05-30T03:31:43.783Z,94930.94
2019-05-30T03:34:22.106Z,94934.61
2019-05-30T03:36:42.782Z,94943.81
2019-05-30T03:39:14.519Z,94947.02
2019-05-30T03:41:42.005Z,94950.99
2019-05-30T03:44:13.126Z,94949.98
2019-05-30T03:46:43.939Z,94948.17
2019-05-30T03:49:18.413Z,94950.67
2019-05-30T03:51:49.303Z,94952.59
2019-05-30T03:54:18.628Z,94949.20
2019-05-30T03:56:55.906Z,94946.30
2019-05-30T03:59:33.267Z,94948.05
2019-05-30T04:02:15.556Z,94950.37
2019-05-30T04:04:50.056Z,94952.81
2019-05-30T04:07:21.616Z,94951.59
2019-05-30T04:09:53.145Z,94956.89
2019-05-30T04:12:28.103Z,94962.05
2019-05-30T04:15:05.541Z,94961.05
2019-05-30T04:17:34.067Z,94959.85
2019-05-30T04:20:02.936Z,94955.34
2019-05-30T04:22:31.585Z,94962.25
2019-05-30T04:25:00.328Z,94962.37
2019-05-30T04:27:28.822Z,94966.55
2019-05-30T04:29:57.485Z,94969.51
2019-05-30T04:32:26.249Z,94969.52
2019-05-30T04:34:54.890Z,94962.67
2019-05-30T04:37:23.477Z,94964.66
2019-05-30T04:39:52.061Z,94966.31
2019-05-30T04:42:20.931Z,94960.86
2019-05-30T04:44:49.645Z,94965.61
2019-05-30T04:47:18.505Z,94962.00
2019-05-30T04:49:47.585Z,94962.03
2019-05-30T04:52:20.408Z,94965.23
2019-05-30T04:54:46.480Z,94965.23
2019-05-30T04:57:16.865Z,94973.61
2019-05-30T04:59:45.566Z,94975.53
2019-05-30T05:02:15.761Z,94980.16
2019-05-30T05:04:44.381Z,94987.23
2019-05-30T05:07:13.582Z,94990.80
2019-05-30T05:09:42.194Z,94992.53
2019-05-30T05:12:12.017Z,94992.63
2019-05-30T05:14:40.564Z,94992.48
2019-05-30T05:17:09.242Z,94991.10
2019-05-30T05:19:37.880Z,95003.56
2019-05-30T05:22:06.514Z,94999.97
2019-05-30T05:24:35.136Z,95003.33
2019-05-30T05:27:03.702Z,95005.95
2019-05-30T05:29:32.320Z,95019.91
2019-05-30T05:32:01.053Z,95023.36
2019-05-30T05:34:29.566Z,95026.75
2019-05-30T05:36:58.132Z,95023.78
2019-05-30T05:39:28.357Z,95021.88
2019-05-30T05:41:57.041Z,95025.52
2019-05-30T05:44:25.674Z,95021.22
2019-05-30T05:46:54.271Z,95030.78
2019-05-30T05:49:22.921Z,95031.95
2019-05-30T05:51:51.553Z,95028.20
2019-05-30T05:54:20.891Z,95028.34
2019-05-30T05:56:49.495Z,95029.13
2019-05-30T05:59:18.897Z,95028.39
2019-05-30T06:01:47.614Z,95021.56
2019-05-30T06:04:17.201Z,95022.36
2019-05-30T06:06:45.817Z,95022.93
2019-05-30T06:09:14.418Z,95022.99
2019-05-30T06:11:42.918Z,95025.77
2019-05-30T06:14:11.555Z,95025.91
2019-05-30T06:16:42.936Z,95027.77
2019-05-30T06:19:11.491Z,95029.19
2019-05-30T06:21:52.945Z,95034.86
2019-05-30T06:24:10.436Z,95031.17
2019-05-30T06:26:39.081Z,95042.23
2019-05-30T06:29:07.713Z,95032.53
2019-05-30T06:31:36.250Z,95036.59
2019-05-30T06:34:04.900Z,95039.15
2019-05-30T06:36:33.550Z,95038.69
2019-05-30T06:39:02.148Z,95038.99
2019-05-30T06:41:30.640Z,95038.33
2019-05-30T06:43:59.209Z,95039.11
2019-05-30T06:46:28.374Z,95040.98
2019-05-30T06:48:58.655Z,95031.13
2019-05-30T06:51:29.117Z,95037.70
2019-05-30T06:53:57.794Z,95030.24
2019-05-30T06:56:31.481Z,95034.66
2019-05-30T06:59:00.086Z,95032.87
2019-05-30T07:01:30.004Z,95025.25
2019-05-30T07:03:58.902Z,95029.30
2019-05-30T07:06:29.295Z,95032.72
2019-05-30T07:08:58.263Z,95026.88
2019-05-30T07:11:26.895Z,95024.44
2019-05-30T07:13:55.456Z,95035.95
2019-05-30T07:16:25.268Z,95038.72
2019-05-30T07:18:53.942Z,95041.73
2019-05-30T07:21:23.562Z,95033.91
2019-05-30T07:23:52.214Z,95031.02
2019-05-30T07:26:20.668Z,95028.82
2019-05-30T07:28:49.329Z,95021.83
2019-05-30T07:31:17.967Z,95030.36
2019-05-30T07:33:46.543Z,95030.31
2019-05-30T07:36:15.116Z,95015.42
2019-05-30T07:38:43.687Z,95021.42
2019-05-30T07:41:12.441Z,95031.49
2019-05-30T07:43:40.993Z,95034.14
2019-05-30T07:46:09.494Z,95030.05
2019-05-30T07:48:38.609Z,95026.67
2019-05-30T07:51:07.327Z,95027.33
2019-05-30T07:53:35.882Z,95029.88
2019-05-30T07:56:05.241Z,95018.97
2019-05-30T07:58:33.790Z,95023.81
2019-05-30T08:01:02.436Z,95020.80
2019-05-30T08:03:31.033Z,95022.68
2019-05-30T08:05:59.694Z,95027.48
2019-05-30T08:08:28.281Z,95023.70
2019-05-30T08:11:08.959Z,95019.69
2019-05-30T08:13:27.181Z,95018.02
2019-05-30T08:15:55.811Z,95026.23
2019-05-30T08:18:24.445Z,95022.56
2019-05-30T08:20:52.980Z,95024.52
2019-05-30T08:23:21.552Z,95021.91
2019-05-30T08:25:50.176Z,95024.34
2019-05-30T08:28:18.859Z,95019.31
2019-05-30T08:30:47.418Z,95020.55
2019-05-30T08:33:16.068Z,95022.99
2019-05-30T08:35:49.880Z,95020.95
2019-05-30T08:38:15.021Z,95022.70
2019-05-30T08:40:43.594Z,95019.29
2019-05-30T08:43:12.263Z,95021.09
2019-05-30T08:45:40.902Z,95014.86
2019-05-30T08:48:09.526Z,95020.73
2019-05-30T08:50:42.798Z,95013.31
2019-05-30T08:53:08.434Z,95015.70
2019-05-30T08:55:37.023Z,95018.49
2019-05-30T08:58:05.688Z,95015.26
2019-05-30T09:00:34.322Z,95015.95
2019-05-30T09:03:03.112Z,95009.31
2019-05-30T09:05:31.867Z,95019.72
2019-05-30T09:08:00.402Z,95022.28
2019-05-30T09:10:29.114Z,95023.47
2019-05-30T09:12:57.747Z,95022.21
2019-05-30T09:15:26.457Z,95023.27
2019-05-30T09:17:55.097Z,95029.08
2019-05-30T09:20:23.743Z,95027.92
2019-05-30T09:22:52.379Z,95017.98
2019-05-30T09:25:21.562Z,95016.45
2019-05-30T09:27:50.123Z,95015.61
2019-05-30T09:30:20.403Z,95008.50
2019-05-30T09:32:49.070Z,95006.84
2019-05-30T09:35:18.317Z,95005.30
2019-05-30T09:37:47.802Z,95006.05
2019-05-30T09:40:17.298Z,94997.05
2019-05-30T09:42:46.959Z,94999.86
2019-05-30T09:45:18.034Z,94980.86
2019-05-30T09:47:47.188Z,94996.19
2019-05-30T09:50:18.088Z,95004.71
2019-05-30T09:52:47.143Z,95005.35
2019-05-30T09:55:17.608Z,95003.38
2019-05-30T09:57:47.439Z,94998.37
2019-05-30T10:00:18.663Z,94997.54
2019-05-30T10:02:48.625Z,94995.28
2019-05-30T10:05:17.945Z,94991.14
2019-05-30T10:07:47.451Z,94983.48
2019-05-30T10:10:17.154Z,94988.94
2019-05-30T10:12:46.957Z,94986.03
2019-05-30T10:15:16.304Z,94985.16
2019-05-30T10:17:46.301Z,94977.30
2019-05-30T10:20:15.553Z,94985.16
2019-05-30T10:22:44.749Z,94990.71
2019-05-30T10:25:15.793Z,94983.84
2019-05-30T10:27:46.254Z,94982.51
2019-05-30T10:30:15.168Z,94985.47
2019-05-30T10:32:43.802Z,94993.16
2019-05-30T10:35:12.930Z,94994.56
2019-05-30T10:37:41.494Z,94994.75
2019-05-30T10:40:12.037Z,94998.43
2019-05-30T10:42:40.617Z,94995.06
2019-05-30T10:45:11.363Z,95000.78
2019-05-30T10:47:39.951Z,95003.05
2019-05-30T10:50:09.480Z,94994.23
2019-05-30T10:52:38.110Z,95006.13
2019-05-30T10:55:08.979Z,95005.54
2019-05-30T10:57:37.626Z,95003.34
2019-05-30T11:00:10.536Z,94999.90
2019-05-30T11:02:39.722Z,94998.30
2019-05-30T11:05:09.993Z,94995.17
2019-05-30T11:08:01.233Z,94991.96
2019-05-30T11:10:42.935Z,94982.69
2019-05-30T11:13:14.613Z,94982.08
2019-05-30T11:15:43.553Z,94987.76
2019-05-30T11:18:12.266Z,94982.33
2019-05-30T11:20:41.143Z,94983.64
2019-05-30T11:23:09.787Z,94970.77
2019-05-30T11:25:38.419Z,94969.66
2019-05-30T11:28:07.590Z,94971.14
2019-05-30T11:30:36.335Z,94974.55
2019-05-30T11:33:05.569Z,94975.58
2019-05-30T11:35:34.336Z,94977.97
2019-05-30T11:38:03.043Z,94976.88
2019-05-30T11:40:31.702Z,94971.58
2019-05-30T11:43:00.254Z,94977.89
2019-05-30T11:45:28.897Z,94975.25
2019-05-30T11:47:58.084Z,94978.63
2019-05-30T11:50:26.974Z,94972.66
2019-05-30T11:52:55.842Z,94973.16
2019-05-30T11:55:24.497Z,94970.66
2019-05-30T11:57:54.659Z,94965.28
2019-05-30T12:00:24.289Z,94953.17
2019-05-30T12:02:52.849Z,94962.03
2019-05-30T12:05:21.847Z,94955.63
2019-05-30T12:07:50.761Z,94961.02
2019-05-30T12:10:19.794Z,94956.22
2019-05-30T12:12:48.473Z,94963.75
2019-05-30T12:15:17.772Z,94956.83
2019-05-30T12:17:46.407Z,94954.94
2019-05-30T12:20:15.485Z,94953.95
2019-05-30T12:22:44.118Z,94954.86
2019-05-30T12:25:13.652Z,94955.48
2019-05-30T12:27:42.276Z,94957.72
2019-05-30T12:30:11.726Z,94959.97
2019-05-30T12:32:40.360Z,94960.19
2019-05-30T12:35:09.696Z,94960.63
2019-05-30T12:37:53.264Z,94957.75
2019-05-30T12:40:09.868Z,94956.08
2019-05-30T12:42:38.653Z,94953.66
2019-05-30T12:45:08.683Z,94952.39
2019-05-30T12:47:37.183Z,94949.82
2019-05-30T12:50:10.772Z,94960.29
2019-05-30T12:52:39.418Z,94959.38
2019-05-30T12:55:10.246Z,94951.92
2019-05-30T12:57:38.923Z,94953.27
2019-05-30T13:00:18.065Z,94949.58
2019-05-30T13:02:40.457Z,94955.33
2019-05-30T13:05:10.136Z,94954.11
2019-05-30T13:07:38.634Z,94952.88
2019-05-30T13:10:08.486Z,94952.35
2019-05-30T13:12:37.161Z,94954.51
2019-05-30T13:15:07.086Z,94957.64
2019-05-30T13:17:35.744Z,94961.39
2019-05-30T13:20:07.782Z,94953.40
2019-05-30T13:22:36.436Z,94957.13
2019-05-30T13:25:08.837Z,94944.97
2019-05-30T13:27:37.511Z,94944.97
2019-05-30T13:30:07.870Z,94962.04
2019-05-30T13:32:36.431Z,94961.33
2019-05-30T13:35:07.516Z,94970.14
2019-05-30T13:37:36.388Z,94972.33
2019-05-30T13:40:24.200Z,94972.33
2019-05-30T13:42:40.915Z,94961.94
2019-05-30T13:45:10.904Z,94966.20
2019-05-30T13:47:39.645Z,94959.73
2019-05-30T13:50:13.375Z,94966.61
2019-05-30T13:52:41.046Z,94964.50
2019-05-30T13:55:11.682Z,94966.38
2019-05-30T13:57:40.370Z,94965.66
2019-05-30T14:00:10.744Z,94959.70
2019-05-30T14:02:40.092Z,94952.58
2019-05-30T14:05:10.322Z,94942.26
2019-05-30T14:07:39.254Z,94945.67
2019-05-30T14:10:08.800Z,94938.41
2019-05-30T14:12:37.515Z,94947.87
2019-05-30T14:15:10.597Z,94944.66
2019-05-30T14:17:38.515Z,94943.38
2019-05-30T14:20:09.098Z,94954.08
2019-05-30T14:22:37.634Z,94946.89
2019-05-30T14:25:09.655Z,94946.69
2019-05-30T14:27:38.716Z,94947.52
2019-05-30T14:30:08.940Z,94950.64
2019-05-30T14:32:37.793Z,94952.59
2019-05-30T14:35:11.812Z,94947.25
2019-05-30T14:37:40.305Z,94951.45
2019-05-30T14:40:11.081Z,94950.72
2019-05-30T14:42:39.903Z,94953.33
2019-05-30T14:45:10.394Z,94948.97
2019-05-30T14:47:39.259Z,94941.35
2019-05-30T14:50:09.152Z,94941.35
2019-05-30T14:52:37.783Z,94948.53
2019-05-30T14:55:09.023Z,94936.57
2019-05-30T14:57:38.092Z,94955.69
2019-05-30T15:00:09.362Z,94956.80
2019-05-30T15:02:38.017Z,94956.21
2019-05-30T15:05:07.591Z,94956.31
2019-05-30T15:07:36.182Z,94952.60
2019-05-30T15:10:07.065Z,94955.27
2019-05-30T15:12:36.014Z,94956.58
2019-05-30T15:15:07.898Z,94956.16
2019-05-30T15:17:36.500Z,94951.27
2019-05-30T15:20:07.499Z,94943.94
2019-05-30T15:22:36.198Z,94954.06
2019-05-30T15:25:05.769Z,94956.68
2019-05-30T15:27:34.433Z,94960.14
2019-05-30T15:30:03.201Z,94959.28
2019-05-30T15:32:31.841Z,94962.11
2019-05-30T15:35:00.530Z,94951.27
2019-05-30T15:37:29.175Z,94955.20
2019-05-30T15:39:57.682Z,94953.53
2019-05-30T15:42:26.351Z,94942.84
2019-05-30T15:44:55.079Z,94952.12
2019-05-30T15:47:23.577Z,94952.00
2019-05-30T15:49:52.613Z,94952.39
2019-05-30T15:52:21.208Z,94957.81
2019-05-30T15:54:49.937Z,94962.47
2019-05-30T15:57:19.623Z,94954.30
2019-05-30T15:59:48.184Z,94955.91
2019-05-30T16:02:16.826Z,94959.83
2019-05-30T16:04:45.387Z,94959.25
2019-05-30T16:07:14.625Z,94955.83
2019-05-30T16:09:47.166Z,94959.88
2019-05-30T16:12:13.630Z,94956.70
2019-05-30T16:14:42.189Z,94952.83
2019-05-30T16:17:11.782Z,94962.95
2019-05-30T16:19:40.509Z,94956.45
2019-05-30T16:22:09.256Z,94956.91
2019-05-30T16:24:37.770Z,94957.02
2019-05-30T16:27:06.512Z,94958.09
2019-05-30T16:29:35.197Z,94955.61
2019-05-30T16:32:03.942Z,94958.96
2019-05-30T16:34:32.978Z,94953.09
2019-05-30T16:37:01.602Z,94963.59
2019-05-30T16:39:30.247Z,94953.98
2019-05-30T16:41:58.923Z,94958.50
2019-05-30T16:44:27.561Z,94958.11
2019-05-30T16:46:56.057Z,94961.66
2019-05-30T16:49:24.679Z,94961.14
2019-05-30T16:51:53.349Z,94962.80
2019-05-30T16:54:21.926Z,94959.94
2019-05-30T16:56:50.531Z,94956.68
2019-05-30T16:59:19.040Z,94958.50
2019-05-30T17:01:57.277Z,94963.13
2019-05-30T17:04:18.879Z,94966.59
2019-05-30T17:06:47.407Z,94968.33
2019-05-30T17:09:17.112Z,94969.87
2019-05-30T17:11:45.898Z,94970.66
2019-05-30T17:14:15.621Z,94969.62
2019-05-30T17:16:44.176Z,94966.44
2019-05-30T17:19:12.840Z,94972.98
2019-05-30T17:21:41.493Z,94972.58
2019-05-30T17:24:09.997Z,94971.80
2019-05-30T17:26:38.625Z,94977.83
2019-05-30T17:29:07.271Z,94971.80
2019-05-30T17:31:35.779Z,94972.43
2019-05-30T17:34:04.406Z,94978.89
2019-05-30T17:36:33.028Z,94979.30
2019-05-30T17:39:01.793Z,94982.41
2019-05-30T17:41:30.324Z,94987.01
2019-05-30T17:43:58.912Z,94983.01
2019-05-30T17:46:27.545Z,94987.15
2019-05-30T17:48:56.311Z,94991.93
2019-05-30T17:51:25.885Z,94994.67
2019-05-30T17:53:54.526Z,94995.13
2019-05-30T17:56:23.978Z,94994.98
2019-05-30T17:58:52.608Z,94995.05
2019-05-30T18:01:22.236Z,95005.95
2019-05-30T18:03:50.792Z,95003.66
2019-05-30T18:06:20.415Z,95012.26
2019-05-30T18:08:49.037Z,95017.38
2019-05-30T18:11:17.657Z,95019.88
2019-05-30T18:13:46.289Z,95024.53
2019-05-30T18:16:14.873Z,95020.19
2019-05-30T18:18:43.533Z,95023.56
2019-05-30T18:21:12.107Z,95031.75
2019-05-30T18:23:40.671Z,95034.67
2019-05-30T18:26:09.397Z,95042.85
2019-05-30T18:28:38.100Z,95037.05
2019-05-30T18:31:06.677Z,95039.37
2019-05-30T18:33:35.283Z,95042.19
2019-05-30T18:36:03.951Z,95047.41
2019-05-30T18:38:32.746Z,95047.23
2019-05-30T18:41:10.757Z,95046.61
2019-05-30T18:43:32.909Z,95051.06
2019-05-30T18:46:01.591Z,95055.53
2019-05-30T18:48:31.535Z,95055.94
2019-05-30T18:51:00.147Z,95064.32
2019-05-30T18:53:28.792Z,95061.06
2019-05-30T18:55:57.444Z,95061.47
2019-05-30T18:58:26.799Z,95065.04
2019-05-30T19:00:55.498Z,95062.66
2019-05-30T19:03:24.503Z,95063.86
2019-05-30T19:05:53.025Z,95063.63
2019-05-30T19:08:21.632Z,95072.13
2019-05-30T19:10:50.284Z,95075.56
2019-05-30T19:13:18.922Z,95081.03
2019-05-30T19:15:47.601Z,95081.53
2019-05-30T19:18:16.103Z,95084.11
2019-05-30T19:20:44.744Z,95089.90
2019-05-30T19:23:13.344Z,95096.27
2019-05-30T19:25:42.500Z,95094.52
2019-05-30T19:28:11.130Z,95091.00
2019-05-30T19:30:41.194Z,95095.70
2019-05-30T19:33:09.927Z,95096.07
2019-05-30T19:35:38.558Z,95096.12
2019-05-30T19:38:07.267Z,95095.88
2019-05-30T19:40:35.918Z,95104.59
2019-05-30T19:43:04.863Z,95102.81
2019-05-30T19:45:34.113Z,95106.14
2019-05-30T19:48:02.872Z,95099.69
2019-05-30T19:50:32.534Z,95098.20
2019-05-30T19:53:01.184Z,95103.91
2019-05-30T19:55:31.021Z,95104.05
2019-05-30T19:57:59.834Z,95106.33
2019-05-30T20:00:29.889Z,95107.85
2019-05-30T20:02:58.521Z,95109.14
2019-05-30T20:05:27.053Z,95106.63
2019-05-30T20:07:55.682Z,95109.41
2019-05-30T20:10:24.329Z,95112.45
2019-05-30T20:12:52.995Z,95112.19
2019-05-30T20:15:22.536Z,95109.94
2019-05-30T20:17:51.102Z,95106.79
2019-05-30T20:20:19.924Z,95112.22
2019-05-30T20:22:48.567Z,95107.92
2019-05-30T20:25:17.296Z,95103.78
2019-05-30T20:27:45.919Z,95105.80
2019-05-30T20:30:15.553Z,95109.96
2019-05-30T20:32:44.216Z,95109.46
2019-05-30T20:35:13.147Z,95112.87
2019-05-30T20:37:42.824Z,95108.70
2019-05-30T20:40:13.062Z,95109.98
2019-05-30T20:42:42.949Z,95114.77
2019-05-30T20:45:12.132Z,95111.89
2019-05-30T20:47:42.637Z,95118.59
2019-05-30T20:50:14.939Z,95116.54
2019-05-30T20:52:45.278Z,95122.87
2019-05-30T20:55:12.809Z,95108.34
2019-05-30T20:57:42.567Z,95129.69
2019-05-30T21:00:12.682Z,95130.40
2019-05-30T21:02:41.198Z,95135.33
2019-05-30T21:05:11.099Z,95128.42
2019-05-30T21:07:41.913Z,95145.41
2019-05-30T21:10:11.163Z,95140.25
2019-05-30T21:12:44.380Z,95146.42
2019-05-30T21:15:11.899Z,95146.06
2019-05-30T21:17:43.758Z,95148.62
2019-05-30T21:20:12.849Z,95159.81
2019-05-30T21:22:42.299Z,95156.52
2019-05-30T21:25:10.993Z,95158.03
2019-05-30T21:27:40.784Z,95158.55
2019-05-30T21:30:09.595Z,95153.87
2019-05-30T21:32:39.687Z,95159.42
2019-05-30T21:35:08.800Z,95159.18
2019-05-30T21:37:37.712Z,95162.08
2019-05-30T21:40:09.661Z,95164.59
2019-05-30T21:42:55.651Z,95169.27
2019-05-30T21:45:09.196Z,95171.53
2019-05-30T21:47:38.690Z,95164.59
2019-05-30T21:50:09.310Z,95164.97
2019-05-30T21:52:39.283Z,95157.53
2019-05-30T21:55:08.158Z,95152.23
2019-05-30T21:57:36.840Z,95161.84
2019-05-30T22:00:11.450Z,95169.78
2019-05-30T22:02:40.670Z,95165.87
2019-05-30T22:05:09.663Z,95161.95
2019-05-30T22:07:38.301Z,95160.30
2019-05-30T22:10:07.099Z,95164.48
2019-05-30T22:12:35.639Z,95158.28
2019-05-30T22:15:05.993Z,95160.67
2019-05-30T22:17:34.639Z,95154.63
2019-05-30T22:20:04.112Z,95158.30
2019-05-30T22:22:32.641Z,95159.92
2019-05-30T22:25:01.281Z,95152.20
2019-05-30T22:27:29.959Z,95150.95
2019-05-30T22:29:58.454Z,95165.08
2019-05-30T22:32:27.083Z,95158.77
2019-05-30T22:34:55.760Z,95156.64
2019-05-30T22:37:24.393Z,95155.63
2019-05-30T22:39:53.082Z,95155.63
2019-05-30T22:42:21.858Z,95151.59
2019-05-30T22:44:50.356Z,95153.86
2019-05-30T22:47:18.860Z,95154.46
2019-05-30T22:49:48.693Z,95148.94
2019-05-30T22:52:17.348Z,95149.83
2019-05-30T22:54:47.024Z,95145.52
2019-05-30T22:57:15.660Z,95151.56
2019-05-30T22:59:44.684Z,95154.83
2019-05-30T23:02:13.404Z,95146.39
2019-05-30T23:04:42.075Z,95148.05
2019-05-30T23:07:10.572Z,95151.56
2019-05-30T23:09:39.311Z,95152.33
2019-05-30T23:12:07.997Z,95144.34
2019-05-30T23:14:36.493Z,95151.92
2019-05-30T23:17:05.142Z,95135.15
2019-05-30T23:19:33.816Z,95149.42
2019-05-30T23:22:02.461Z,95133.64
2019-05-30T23:24:30.949Z,95145.52
2019-05-30T23:26:59.482Z,95152.08
2019-05-30T23:29:28.051Z,95146.87
2019-05-30T23:31:56.686Z,95148.52
2019-05-30T23:34:25.235Z,95151.78
2019-05-30T23:36:54.551Z,95162.36
2019-05-30T23:39:23.260Z,95152.66
2019-05-30T23:41:52.952Z,95146.46
2019-05-30T23:44:21.503Z,95150.12
2019-05-30T23:46:51.349Z,95148.13
2019-05-30T23:49:20.295Z,95140.19
2019-05-30T23:51:49.895Z,95143.06
2019-05-30T23:54:18.680Z,95147.22
2019-05-30T23:56:47.230Z,95148.30
2019-05-30T23:59:15.863Z,95147.81
